Wetterdaten: Sonntag, 19.07.2015
Datum Zeit Auen-Temp. Temp gefhlt Luftfeuchte Luftdruck Regen Wind Richtung Richtung Taupunkt Windben
19.07.2015 00:00 15,9 C 15,8 C 82 % 1012,4 hPa 0,0 mm 0,0 km/h (0 Bft) O-NO 67 12,8 C 0,0 km/h (0 Bft)
19.07.2015 00:05 15,9 C 15,7 C 85 % 1012,4 hPa 0,0 mm 0,0 km/h (0 Bft) O 90 13,4 C 0,0 km/h (0 Bft)
19.07.2015 00:10 16,1 C 15,9 C 82 % 1012,4 hPa 0,0 mm 0,0 km/h (0 Bft) SW 225 13,0 C 0,0 km/h (0 Bft)
19.07.2015 00:15 16,1 C 15,9 C 84 % 1012,4 hPa 0,0 mm 0,0 km/h (0 Bft) SO 135 13,4 C 0,0 km/h (0 Bft)
19.07.2015 00:20 15,8 C 15,6 C 85 % 1012,4 hPa 0,0 mm 0,0 km/h (0 Bft) N-NW 337 13,3 C 0,0 km/h (0 Bft)
19.07.2015 00:25 15,9 C 15,7 C 85 % 1012,4 hPa 0,0 mm 0,0 km/h (0 Bft) N-NW 337 13,4 C 0,0 km/h (0 Bft)
19.07.2015 00:30 15,8 C 15,6 C 85 % 1012,2 hPa 0,0 mm 0,0 km/h (0 Bft) N-NW 337 13,3 C 0,0 km/h (0 Bft)
19.07.2015 00:35 15,7 C 15,5 C 85 % 1012,2 hPa 0,0 mm 0,0 km/h (0 Bft) W 270 13,2 C 0,0 km/h (0 Bft)
19.07.2015 00:40 15,6 C 15,4 C 85 % 1012,2 hPa 0,0 mm 0,0 km/h (0 Bft) N-NO 22 13,1 C 3,1 km/h (1 Bft)
19.07.2015 00:45 15,9 C 15,6 C 86 % 1012,2 hPa 0,0 mm 0,0 km/h (0 Bft) N-NO 22 13,6 C 0,0 km/h (0 Bft)
19.07.2015 00:50 16,0 C 15,8 C 82 % 1012,2 hPa 0,0 mm 0,5 km/h (0 Bft) S-SO 157 12,9 C 6,0 km/h (2 Bft)
19.07.2015 00:55 16,2 C 15,9 C 85 % 1012,2 hPa 0,0 mm 0,5 km/h (0 Bft) S-SO 157 13,7 C 0,0 km/h (0 Bft)
19.07.2015 01:00 16,3 C 16,2 C 82 % 1012,2 hPa 0,0 mm 0,3 km/h (0 Bft) SO 135 13,2 C 0,0 km/h (0 Bft)
19.07.2015 01:05 16,3 C 16,2 C 82 % 1012,2 hPa 0,0 mm 0,0 km/h (0 Bft) SO 135 13,2 C 0,0 km/h (0 Bft)
19.07.2015 01:10 16,6 C 16,6 C 82 % 1012,3 hPa 0,0 mm 0,3 km/h (0 Bft) SO 135 13,5 C 3,1 km/h (1 Bft)
19.07.2015 01:15 17,0 C 16,8 C 84 % 1012,3 hPa 0,0 mm 0,3 km/h (0 Bft) SO 135 14,3 C 0,0 km/h (0 Bft)
19.07.2015 01:20 16,9 C 16,8 C 84 % 1012,3 hPa 0,0 mm 0,0 km/h (0 Bft) S 180 14,2 C 0,0 km/h (0 Bft)
19.07.2015 01:25 16,8 C 16,7 C 83 % 1012,3 hPa 0,0 mm 0,0 km/h (0 Bft) O-SO 112 13,9 C 0,0 km/h (0 Bft)
19.07.2015 01:30 16,6 C 16,5 C 83 % 1012,1 hPa 0,0 mm 0,0 km/h (0 Bft) O-SO 112 13,7 C 0,0 km/h (0 Bft)
19.07.2015 01:35 16,4 C 16,4 C 83 % 1012,1 hPa 0,0 mm 0,0 km/h (0 Bft) O-SO 112 13,5 C 0,0 km/h (0 Bft)
19.07.2015 01:40 16,5 C 16,4 C 83 % 1012,1 hPa 0,0 mm 0,0 km/h (0 Bft) O-SO 112 13,6 C 0,0 km/h (0 Bft)
19.07.2015 01:45 16,5 C 16,4 C 83 % 1012,1 hPa 0,0 mm 0,0 km/h (0 Bft) O-SO 112 13,6 C 0,0 km/h (0 Bft)
19.07.2015 01:50 16,4 C 16,3 C 83 % 1011,8 hPa 0,0 mm 0,0 km/h (0 Bft) O-SO 112 13,5 C 0,0 km/h (0 Bft)
19.07.2015 01:55 16,5 C 16,4 C 83 % 1011,8 hPa 0,0 mm 0,0 km/h (0 Bft) W 270 13,6 C 0,0 km/h (0 Bft)
19.07.2015 02:00 16,7 C 16,5 C 83 % 1011,8 hPa 0,0 mm 0,0 km/h (0 Bft) O-NO 67 13,8 C 0,0 km/h (0 Bft)
19.07.2015 02:05 16,7 C 16,5 C 83 % 1011,8 hPa 0,0 mm 0,0 km/h (0 Bft) W 270 13,8 C 0,0 km/h (0 Bft)
19.07.2015 02:10 16,5 C 16,4 C 82 % 1011,6 hPa 0,0 mm 0,0 km/h (0 Bft) S 180 13,4 C 0,0 km/h (0 Bft)
19.07.2015 02:15 16,3 C 16,2 C 82 % 1011,6 hPa 0,0 mm 0,3 km/h (0 Bft) W 270 13,2 C 0,0 km/h (0 Bft)
19.07.2015 02:20 16,4 C 16,2 C 83 % 1011,6 hPa 0,0 mm 0,3 km/h (0 Bft) O-SO 112 13,5 C 0,0 km/h (0 Bft)
19.07.2015 02:23 16,3 C 16,2 C 83 % 1011,6 hPa 0,0 mm 0,0 km/h (0 Bft) O-NO 67 13,4 C 0,0 km/h (0 Bft)
19.07.2015 02:25 16,3 C 16,2 C 83 % 1011,6 hPa 0,0 mm 0,0 km/h (0 Bft) O-NO 67 13,4 C 0,0 km/h (0 Bft)
19.07.2015 02:30 16,3 C 16,2 C 83 % 1011,4 hPa 0,0 mm 0,0 km/h (0 Bft) W 270 13,4 C 0,0 km/h (0 Bft)
19.07.2015 02:35 16,3 C 16,2 C 83 % 1011,4 hPa 0,0 mm 0,0 km/h (0 Bft) SW 225 13,4 C 0,0 km/h (0 Bft)
19.07.2015 02:40 16,5 C 16,3 C 83 % 1011,4 hPa 0,0 mm 0,0 km/h (0 Bft) W 270 13,6 C 2,6 km/h (1 Bft)
19.07.2015 02:45 16,4 C 16,3 C 83 % 1011,4 hPa 0,0 mm 0,3 km/h (0 Bft) S-SO 157 13,5 C 0,0 km/h (0 Bft)
19.07.2015 02:50 16,6 C 16,5 C 84 % 1011,2 hPa 0,0 mm 0,5 km/h (0 Bft) O-SO 112 13,9 C 0,0 km/h (0 Bft)
19.07.2015 02:55 16,5 C 16,4 C 83 % 1011,2 hPa 0,0 mm 0,3 km/h (0 Bft) NO 45 13,6 C 0,0 km/h (0 Bft)
19.07.2015 03:00 16,4 C 16,3 C 83 % 1011,2 hPa 0,0 mm 0,0 km/h (0 Bft) N-NO 22 13,5 C 0,0 km/h (0 Bft)
19.07.2015 03:05 16,4 C 16,3 C 83 % 1011,2 hPa 0,0 mm 0,0 km/h (0 Bft) O-SO 112 13,5 C 0,0 km/h (0 Bft)
19.07.2015 03:10 16,5 C 16,4 C 83 % 1011,0 hPa 0,0 mm 0,0 km/h (0 Bft) N-NO 22 13,6 C 0,0 km/h (0 Bft)
19.07.2015 03:15 16,5 C 16,5 C 83 % 1011,0 hPa 0,0 mm 0,0 km/h (0 Bft) W 270 13,6 C 0,0 km/h (0 Bft)
19.07.2015 03:20 16,5 C 16,5 C 83 % 1011,0 hPa 0,0 mm 0,0 km/h (0 Bft) W-SW 247 13,6 C 0,0 km/h (0 Bft)
19.07.2015 03:25 16,6 C 16,5 C 83 % 1011,0 hPa 0,0 mm 0,0 km/h (0 Bft) W-SW 247 13,7 C 0,0 km/h (0 Bft)
19.07.2015 03:30 16,5 C 16,5 C 83 % 1010,6 hPa 0,0 mm 0,0 km/h (0 Bft) N-NO 22 13,6 C 0,0 km/h (0 Bft)
19.07.2015 03:35 16,6 C 16,5 C 83 % 1010,6 hPa 0,0 mm 0,0 km/h (0 Bft) S 180 13,7 C 0,0 km/h (0 Bft)
19.07.2015 03:40 16,6 C 16,5 C 83 % 1010,6 hPa 0,0 mm 0,0 km/h (0 Bft) S-SO 157 13,7 C 0,0 km/h (0 Bft)
19.07.2015 03:45 16,6 C 16,5 C 83 % 1010,6 hPa 0,0 mm 0,0 km/h (0 Bft) S 180 13,7 C 0,0 km/h (0 Bft)
19.07.2015 03:50 16,5 C 16,5 C 83 % 1010,3 hPa 0,0 mm 0,0 km/h (0 Bft) SW 225 13,6 C 0,0 km/h (0 Bft)
19.07.2015 03:55 16,5 C 16,4 C 83 % 1010,3 hPa 0,0 mm 0,0 km/h (0 Bft) SW 225 13,6 C 0,0 km/h (0 Bft)
19.07.2015 04:00 16,6 C 16,5 C 83 % 1010,3 hPa 0,0 mm 0,0 km/h (0 Bft) SW 225 13,7 C 0,0 km/h (0 Bft)
19.07.2015 04:05 16,5 C 16,4 C 83 % 1010,3 hPa 0,0 mm 0,0 km/h (0 Bft) SW 225 13,6 C 0,0 km/h (0 Bft)
19.07.2015 04:10 16,6 C 16,6 C 81 % 1010,1 hPa 0,0 mm 0,0 km/h (0 Bft) S-SW 202 13,3 C 0,0 km/h (0 Bft)
19.07.2015 04:15 16,7 C 16,6 C 83 % 1010,1 hPa 0,0 mm 0,0 km/h (0 Bft) W 270 13,8 C 0,0 km/h (0 Bft)
19.07.2015 04:20 16,7 C 16,6 C 83 % 1010,1 hPa 0,0 mm 0,0 km/h (0 Bft) W 270 13,8 C 0,0 km/h (0 Bft)
19.07.2015 04:25 16,7 C 16,6 C 83 % 1010,1 hPa 0,0 mm 0,5 km/h (0 Bft) W 270 13,8 C 4,7 km/h (1 Bft)
19.07.2015 04:30 16,6 C 16,5 C 83 % 1009,9 hPa 0,0 mm 0,5 km/h (0 Bft) SO 135 13,7 C 0,0 km/h (0 Bft)
19.07.2015 04:35 16,7 C 16,6 C 84 % 1009,9 hPa 0,0 mm 0,5 km/h (0 Bft) SO 135 14,0 C 0,0 km/h (0 Bft)
19.07.2015 04:40 16,6 C 16,5 C 83 % 1009,9 hPa 0,0 mm 0,0 km/h (0 Bft) N-NO 22 13,7 C 0,0 km/h (0 Bft)
19.07.2015 04:45 16,4 C 16,4 C 83 % 1009,9 hPa 0,0 mm 0,0 km/h (0 Bft) N 360 13,5 C 0,0 km/h (0 Bft)
19.07.2015 04:50 16,3 C 16,2 C 83 % 1009,7 hPa 0,0 mm 0,0 km/h (0 Bft) SO 135 13,4 C 0,0 km/h (0 Bft)
19.07.2015 04:55 16,3 C 16,2 C 83 % 1009,7 hPa 0,0 mm 0,0 km/h (0 Bft) S 180 13,4 C 0,0 km/h (0 Bft)
19.07.2015 05:00 16,0 C 15,9 C 83 % 1009,7 hPa 0,0 mm 0,0 km/h (0 Bft) S-SW 202 13,1 C 0,0 km/h (0 Bft)
19.07.2015 05:05 15,9 C 15,8 C 84 % 1009,7 hPa 0,0 mm 0,0 km/h (0 Bft) SO 135 13,2 C 0,0 km/h (0 Bft)
19.07.2015 05:10 15,7 C 15,6 C 84 % 1009,6 hPa 0,0 mm 0,3 km/h (0 Bft) W 270 13,0 C 3,4 km/h (1 Bft)
19.07.2015 05:15 15,6 C 15,5 C 84 % 1009,6 hPa 0,0 mm 0,3 km/h (0 Bft) W-SW 247 12,9 C 0,0 km/h (0 Bft)
19.07.2015 05:20 15,8 C 15,5 C 85 % 1009,6 hPa 0,0 mm 0,3 km/h (0 Bft) S-SO 157 13,3 C 0,0 km/h (0 Bft)
19.07.2015 05:25 16,0 C 15,7 C 85 % 1009,6 hPa 0,0 mm 0,0 km/h (0 Bft) SO 135 13,5 C 0,0 km/h (0 Bft)
19.07.2015 05:30 15,9 C 15,7 C 85 % 1009,5 hPa 0,0 mm 0,0 km/h (0 Bft) O-SO 112 13,4 C 0,0 km/h (0 Bft)
19.07.2015 05:35 15,8 C 15,7 C 82 % 1009,5 hPa 0,0 mm 0,0 km/h (0 Bft) SW 225 12,7 C 0,0 km/h (0 Bft)
19.07.2015 05:40 15,4 C 15,3 C 85 % 1009,5 hPa 0,0 mm 0,0 km/h (0 Bft) W 270 12,9 C 0,0 km/h (0 Bft)
19.07.2015 05:45 15,2 C 15,1 C 84 % 1009,5 hPa 0,0 mm 0,0 km/h (0 Bft) NW 315 12,5 C 0,0 km/h (0 Bft)
19.07.2015 05:50 15,6 C 15,4 C 83 % 1009,5 hPa 0,0 mm 0,8 km/h (0 Bft) SW 225 12,7 C 6,7 km/h (2 Bft)
19.07.2015 05:55 15,5 C 15,4 C 85 % 1009,5 hPa 0,0 mm 1,6 km/h (1 Bft) W-SW 247 13,0 C 0,0 km/h (0 Bft)
19.07.2015 06:00 15,0 C 15,0 C 84 % 1009,5 hPa 0,0 mm 1,3 km/h (1 Bft) W 270 12,3 C 0,0 km/h (0 Bft)
19.07.2015 06:05 15,0 C 14,9 C 84 % 1009,5 hPa 0,0 mm 0,3 km/h (0 Bft) S 180 12,3 C 0,0 km/h (0 Bft)
19.07.2015 06:10 15,0 C 14,9 C 85 % 1009,2 hPa 0,0 mm 0,0 km/h (0 Bft) O-SO 112 12,5 C 0,0 km/h (0 Bft)
19.07.2015 06:15 15,0 C 14,9 C 85 % 1009,2 hPa 0,0 mm 0,0 km/h (0 Bft) S-SO 157 12,5 C 0,0 km/h (0 Bft)
19.07.2015 06:20 15,4 C 15,5 C 83 % 1009,2 hPa 0,0 mm 0,0 km/h (0 Bft) SW 225 12,5 C 0,0 km/h (0 Bft)
19.07.2015 06:25 15,7 C 15,9 C 83 % 1009,2 hPa 0,0 mm 0,0 km/h (0 Bft) N-NO 22 12,8 C 0,0 km/h (0 Bft)
19.07.2015 06:30 16,0 C 17,0 C 82 % 1009,0 hPa 0,0 mm 0,3 km/h (0 Bft) NO 45 12,9 C 0,0 km/h (0 Bft)
19.07.2015 06:35 16,0 C 17,2 C 84 % 1009,0 hPa 0,0 mm 0,3 km/h (0 Bft) S 180 13,3 C 4,9 km/h (1 Bft)
19.07.2015 06:40 16,1 C 17,5 C 81 % 1009,0 hPa 0,0 mm 1,3 km/h (1 Bft) S-SO 157 12,8 C 9,3 km/h (2 Bft)
19.07.2015 06:45 16,9 C 18,9 C 81 % 1009,0 hPa 0,0 mm 4,1 km/h (1 Bft) SW 225 13,6 C 6,5 km/h (2 Bft)
19.07.2015 06:50 17,5 C 20,2 C 80 % 1008,9 hPa 0,0 mm 4,7 km/h (1 Bft) W 270 14,0 C 9,6 km/h (2 Bft)
19.07.2015 06:55 17,9 C 21,1 C 79 % 1008,9 hPa 0,0 mm 3,1 km/h (1 Bft) W-SW 247 14,2 C 5,2 km/h (1 Bft)
19.07.2015 07:00 18,4 C 21,9 C 78 % 1008,9 hPa 0,0 mm 4,7 km/h (1 Bft) S-SW 202 14,5 C 11,1 km/h (2 Bft)
19.07.2015 07:05 18,7 C 22,2 C 77 % 1008,9 hPa 0,0 mm 5,2 km/h (1 Bft) SW 225 14,6 C 0,0 km/h (0 Bft)
19.07.2015 07:10 19,1 C 23,0 C 76 % 1008,9 hPa 0,0 mm 3,9 km/h (1 Bft) W-SW 247 14,8 C 0,0 km/h (0 Bft)
19.07.2015 07:15 19,3 C 23,7 C 76 % 1008,9 hPa 0,0 mm 2,8 km/h (1 Bft) SW 225 15,0 C 7,5 km/h (2 Bft)
19.07.2015 07:20 19,8 C 24,4 C 75 % 1008,9 hPa 0,0 mm 2,6 km/h (1 Bft) SW 225 15,2 C 0,0 km/h (0 Bft)
19.07.2015 07:25 19,8 C 25,1 C 74 % 1008,9 hPa 0,0 mm 2,8 km/h (1 Bft) S 180 15,0 C 6,5 km/h (2 Bft)
19.07.2015 07:30 20,2 C 25,4 C 73 % 1008,6 hPa 0,0 mm 3,6 km/h (1 Bft) SW 225 15,2 C 0,0 km/h (0 Bft)
19.07.2015 07:35 20,4 C 26,0 C 73 % 1008,6 hPa 0,0 mm 3,9 km/h (1 Bft) S 180 15,4 C 6,5 km/h (2 Bft)
19.07.2015 07:40 20,7 C 27,2 C 73 % 1008,6 hPa 0,0 mm 2,1 km/h (1 Bft) S 180 15,7 C 8,5 km/h (2 Bft)
19.07.2015 07:45 21,1 C 27,5 C 72 % 1008,6 hPa 0,0 mm 2,6 km/h (1 Bft) S-SW 202 15,8 C 5,7 km/h (1 Bft)
19.07.2015 07:50 21,3 C 28,1 C 71 % 1008,6 hPa 0,0 mm 3,6 km/h (1 Bft) S-SO 157 15,8 C 0,0 km/h (0 Bft)
19.07.2015 07:55 21,9 C 29,0 C 71 % 1008,6 hPa 0,0 mm 2,3 km/h (1 Bft) W-SW 247 16,4 C 0,0 km/h (0 Bft)
19.07.2015 08:00 22,4 C 29,6 C 69 % 1008,6 hPa 0,0 mm 1,0 km/h (0 Bft) W 270 16,4 C 0,0 km/h (0 Bft)
19.07.2015 08:05 22,8 C 30,4 C 69 % 1008,6 hPa 0,0 mm 1,0 km/h (0 Bft) W-NW 292 16,8 C 3,4 km/h (1 Bft)
19.07.2015 08:10 23,4 C 31,0 C 68 % 1008,9 hPa 0,0 mm 0,5 km/h (0 Bft) S 180 17,1 C 0,0 km/h (0 Bft)
19.07.2015 08:15 23,3 C 31,7 C 66 % 1008,9 hPa 0,0 mm 0,5 km/h (0 Bft) O-SO 112 16,6 C 0,0 km/h (0 Bft)
19.07.2015 08:20 23,5 C 30,4 C 67 % 1008,9 hPa 0,0 mm 0,3 km/h (0 Bft) W-SW 247 17,0 C 0,0 km/h (0 Bft)
19.07.2015 08:24 23,4 C 30,9 C 67 % 1008,9 hPa 0,0 mm 0,3 km/h (0 Bft) NW 315 16,9 C 2,8 km/h (1 Bft)
19.07.2015 08:25 23,4 C 30,9 C 67 % 1008,9 hPa 0,0 mm 0,3 km/h (0 Bft) NW 315 16,9 C 2,8 km/h (1 Bft)
19.07.2015 08:30 23,9 C 30,7 C 67 % 1009,4 hPa 0,0 mm 0,8 km/h (0 Bft) W 270 17,4 C 3,9 km/h (1 Bft)
19.07.2015 08:35 24,2 C 31,2 C 66 % 1009,4 hPa 0,0 mm 1,6 km/h (1 Bft) W-SW 247 17,4 C 0,0 km/h (0 Bft)
19.07.2015 08:40 24,7 C 31,9 C 66 % 1009,4 hPa 0,0 mm 2,6 km/h (1 Bft) S 180 17,9 C 13,2 km/h (3 Bft)
19.07.2015 08:45 24,5 C 31,8 C 63 % 1009,4 hPa 0,0 mm 2,8 km/h (1 Bft) S-SW 202 17,0 C 4,4 km/h (1 Bft)
19.07.2015 08:50 24,8 C 33,2 C 64 % 1009,8 hPa 0,0 mm 2,3 km/h (1 Bft) S-SO 157 17,5 C 0,0 km/h (0 Bft)
19.07.2015 08:55 25,2 C 33,2 C 64 % 1009,8 hPa 0,0 mm 0,5 km/h (0 Bft) W-SW 247 17,9 C 0,0 km/h (0 Bft)
19.07.2015 09:00 25,2 C 31,2 C 63 % 1009,8 hPa 0,0 mm 1,8 km/h (1 Bft) W-NW 292 17,6 C 4,9 km/h (1 Bft)
19.07.2015 09:05 24,9 C 29,5 C 64 % 1009,8 hPa 0,0 mm 2,8 km/h (1 Bft) W-NW 292 17,6 C 0,0 km/h (0 Bft)
19.07.2015 09:10 24,7 C 27,8 C 65 % 1010,6 hPa 0,0 mm 1,6 km/h (1 Bft) NW 315 17,7 C 0,0 km/h (0 Bft)
19.07.2015 09:15 24,8 C 27,7 C 66 % 1010,6 hPa 0,0 mm 1,0 km/h (0 Bft) W-NW 292 18,0 C 5,2 km/h (1 Bft)
19.07.2015 09:20 25,4 C 29,8 C 63 % 1010,6 hPa 0,0 mm 2,6 km/h (1 Bft) W 270 17,8 C 5,2 km/h (1 Bft)
19.07.2015 09:25 25,3 C 29,7 C 61 % 1010,6 hPa 0,0 mm 4,1 km/h (1 Bft) O-SO 112 17,2 C 7,8 km/h (2 Bft)
19.07.2015 09:30 25,1 C 28,8 C 61 % 1010,8 hPa 0,0 mm 4,4 km/h (1 Bft) NW 315 17,0 C 6,0 km/h (2 Bft)
19.07.2015 09:35 24,8 C 28,1 C 60 % 1010,8 hPa 0,0 mm 4,4 km/h (1 Bft) S-SW 202 16,5 C 7,5 km/h (2 Bft)
19.07.2015 09:40 24,6 C 27,1 C 58 % 1010,8 hPa 0,0 mm 8,3 km/h (2 Bft) W-SW 247 15,8 C 26,4 km/h (4 Bft)
19.07.2015 09:45 24,2 C 26,4 C 58 % 1010,8 hPa 0,0 mm 11,4 km/h (2 Bft) W-NW 292 15,4 C 19,2 km/h (3 Bft)
19.07.2015 09:50 24,1 C 26,0 C 58 % 1011,4 hPa 0,0 mm 14,2 km/h (3 Bft) W-SW 247 15,3 C 30,6 km/h (5 Bft)
19.07.2015 09:55 24,7 C 27,9 C 58 % 1011,4 hPa 0,0 mm 12,2 km/h (2 Bft) SO 135 15,9 C 10,6 km/h (2 Bft)
19.07.2015 10:00 24,8 C 29,2 C 57 % 1011,4 hPa 0,0 mm 10,1 km/h (2 Bft) SW 225 15,7 C 12,7 km/h (3 Bft)
19.07.2015 10:05 24,9 C 29,5 C 57 % 1011,4 hPa 0,0 mm 12,2 km/h (2 Bft) S 180 15,8 C 28,2 km/h (4 Bft)
19.07.2015 10:10 24,8 C 29,4 C 56 % 1011,5 hPa 0,0 mm 13,5 km/h (3 Bft) W 270 15,4 C 18,6 km/h (3 Bft)
19.07.2015 10:15 24,9 C 29,5 C 56 % 1011,5 hPa 0,0 mm 12,7 km/h (3 Bft) N-NW 337 15,5 C 11,4 km/h (2 Bft)
19.07.2015 10:20 25,2 C 29,9 C 56 % 1011,5 hPa 0,0 mm 10,1 km/h (2 Bft) S 180 15,8 C 13,2 km/h (3 Bft)
19.07.2015 10:25 25,1 C 29,9 C 55 % 1011,5 hPa 0,0 mm 11,7 km/h (2 Bft) W-NW 292 15,4 C 17,6 km/h (3 Bft)
19.07.2015 10:30 25,5 C 30,2 C 56 % 1011,6 hPa 0,0 mm 10,6 km/h (2 Bft) NW 315 16,1 C 41,4 km/h (6 Bft)
19.07.2015 10:35 25,7 C 30,3 C 56 % 1011,6 hPa 0,0 mm 9,1 km/h (2 Bft) S 180 16,2 C 7,5 km/h (2 Bft)
19.07.2015 10:40 25,7 C 30,2 C 54 % 1011,6 hPa 0,0 mm 11,7 km/h (2 Bft) W-SW 247 15,7 C 25,6 km/h (4 Bft)
19.07.2015 10:45 25,6 C 30,1 C 55 % 1011,6 hPa 0,0 mm 11,7 km/h (2 Bft) NW 315 15,9 C 22,8 km/h (4 Bft)
19.07.2015 10:50 26,0 C 30,7 C 53 % 1012,0 hPa 0,0 mm 9,6 km/h (2 Bft) SW 225 15,7 C 17,9 km/h (3 Bft)
19.07.2015 10:55 25,8 C 30,5 C 54 % 1012,0 hPa 0,0 mm 10,1 km/h (2 Bft) S 180 15,8 C 16,8 km/h (3 Bft)
19.07.2015 11:00 26,0 C 30,6 C 52 % 1012,0 hPa 0,0 mm 10,9 km/h (2 Bft) SW 225 15,4 C 13,5 km/h (3 Bft)
19.07.2015 11:05 25,9 C 30,4 C 55 % 1012,0 hPa 0,0 mm 10,4 km/h (2 Bft) S-SW 202 16,2 C 11,7 km/h (2 Bft)
19.07.2015 11:10 26,2 C 30,8 C 52 % 1012,5 hPa 0,0 mm 10,4 km/h (2 Bft) NW 315 15,6 C 16,3 km/h (3 Bft)
19.07.2015 11:15 26,3 C 30,5 C 53 % 1012,5 hPa 0,0 mm 9,8 km/h (2 Bft) S 180 15,9 C 12,9 km/h (3 Bft)
19.07.2015 11:20 26,5 C 30,8 C 53 % 1012,5 hPa 0,0 mm 9,8 km/h (2 Bft) W-SW 247 16,1 C 9,6 km/h (2 Bft)
19.07.2015 11:25 26,5 C 30,6 C 53 % 1012,5 hPa 0,0 mm 10,4 km/h (2 Bft) N-NW 337 16,1 C 17,6 km/h (3 Bft)
19.07.2015 11:30 26,6 C 31,0 C 52 % 1012,6 hPa 0,0 mm 11,1 km/h (2 Bft) W-SW 247 15,9 C 27,2 km/h (4 Bft)
19.07.2015 11:35 26,5 C 30,4 C 53 % 1012,6 hPa 0,0 mm 12,2 km/h (2 Bft) NW 315 16,1 C 13,2 km/h (3 Bft)
19.07.2015 11:40 26,7 C 30,4 C 53 % 1012,6 hPa 0,0 mm 13,2 km/h (3 Bft) W-NW 292 16,3 C 18,1 km/h (3 Bft)
19.07.2015 11:45 26,5 C 30,2 C 53 % 1012,6 hPa 0,0 mm 11,1 km/h (2 Bft) NW 315 16,1 C 10,1 km/h (2 Bft)
19.07.2015 11:50 26,3 C 30,4 C 52 % 1012,8 hPa 0,0 mm 11,1 km/h (2 Bft) SW 225 15,6 C 16,6 km/h (3 Bft)
19.07.2015 11:55 26,4 C 30,5 C 53 % 1012,8 hPa 0,0 mm 10,1 km/h (2 Bft) N-NO 22 16,0 C 6,5 km/h (2 Bft)
19.07.2015 12:00 26,7 C 30,9 C 53 % 1012,8 hPa 0,0 mm 8,8 km/h (2 Bft) W-NW 292 16,3 C 13,7 km/h (3 Bft)
19.07.2015 12:05 26,8 C 31,1 C 54 % 1012,8 hPa 0,0 mm 8,5 km/h (2 Bft) W 270 16,7 C 18,6 km/h (3 Bft)
19.07.2015 12:10 26,9 C 30,8 C 52 % 1012,6 hPa 0,0 mm 12,4 km/h (3 Bft) W-SW 247 16,2 C 20,2 km/h (4 Bft)
19.07.2015 12:15 26,6 C 30,2 C 53 % 1012,6 hPa 0,0 mm 14,8 km/h (3 Bft) W-SW 247 16,2 C 14,2 km/h (3 Bft)
19.07.2015 12:20 26,6 C 30,4 C 51 % 1012,6 hPa 0,0 mm 12,2 km/h (2 Bft) NO 45 15,6 C 22,0 km/h (4 Bft)
19.07.2015 12:25 26,5 C 30,3 C 50 % 1012,6 hPa 0,0 mm 11,9 km/h (2 Bft) W-NW 292 15,2 C 26,7 km/h (4 Bft)
19.07.2015 12:30 26,6 C 30,3 C 51 % 1012,5 hPa 0,0 mm 12,9 km/h (3 Bft) W-SW 247 15,6 C 13,5 km/h (3 Bft)
19.07.2015 12:35 26,7 C 30,3 C 50 % 1012,5 hPa 0,0 mm 13,2 km/h (3 Bft) W-SW 247 15,4 C 10,1 km/h (2 Bft)
19.07.2015 12:40 26,6 C 30,0 C 50 % 1012,5 hPa 0,0 mm 15,0 km/h (3 Bft) W 270 15,3 C 10,9 km/h (2 Bft)
19.07.2015 12:45 26,9 C 30,1 C 50 % 1012,5 hPa 0,0 mm 15,3 km/h (3 Bft) W-SW 247 15,6 C 19,7 km/h (3 Bft)
19.07.2015 12:50 26,9 C 30,3 C 50 % 1012,4 hPa 0,0 mm 14,5 km/h (3 Bft) NW 315 15,6 C 21,5 km/h (4 Bft)
19.07.2015 12:55 27,0 C 30,2 C 50 % 1012,4 hPa 0,0 mm 14,8 km/h (3 Bft) W 270 15,7 C 12,7 km/h (3 Bft)
19.07.2015 13:00 27,5 C 30,9 C 50 % 1012,4 hPa 0,0 mm 10,9 km/h (2 Bft) W-NW 292 16,1 C 14,8 km/h (3 Bft)
19.07.2015 13:05 27,8 C 31,5 C 50 % 1012,4 hPa 0,0 mm 9,3 km/h (2 Bft) NW 315 16,4 C 11,1 km/h (2 Bft)
19.07.2015 13:10 27,9 C 31,8 C 49 % 1012,2 hPa 0,0 mm 10,6 km/h (2 Bft) W-NW 292 16,2 C 12,2 km/h (2 Bft)
19.07.2015 13:15 28,1 C 32,0 C 49 % 1012,2 hPa 0,0 mm 10,1 km/h (2 Bft) S-SO 157 16,4 C 8,3 km/h (2 Bft)
19.07.2015 13:20 28,2 C 32,4 C 49 % 1012,2 hPa 0,0 mm 9,1 km/h (2 Bft) W 270 16,5 C 12,4 km/h (3 Bft)
19.07.2015 13:25 28,4 C 32,5 C 49 % 1012,2 hPa 0,0 mm 8,5 km/h (2 Bft) W-SW 247 16,6 C 12,7 km/h (3 Bft)
19.07.2015 13:30 28,5 C 32,4 C 48 % 1012,1 hPa 0,0 mm 8,8 km/h (2 Bft) W-SW 247 16,4 C 18,6 km/h (3 Bft)
19.07.2015 13:35 28,4 C 32,1 C 48 % 1012,1 hPa 0,0 mm 8,3 km/h (2 Bft) W-NW 292 16,3 C 7,3 km/h (2 Bft)
19.07.2015 13:40 27,9 C 30,7 C 48 % 1012,1 hPa 0,0 mm 11,7 km/h (2 Bft) NW 315 15,9 C 21,2 km/h (4 Bft)
19.07.2015 13:45 27,4 C 29,7 C 47 % 1012,1 hPa 0,0 mm 11,1 km/h (2 Bft) W 270 15,1 C 10,9 km/h (2 Bft)
19.07.2015 13:50 27,7 C 29,9 C 48 % 1011,8 hPa 0,0 mm 8,5 km/h (2 Bft) W-SW 247 15,7 C 16,6 km/h (3 Bft)
19.07.2015 13:55 28,0 C 30,8 C 48 % 1011,8 hPa 0,0 mm 8,8 km/h (2 Bft) W-NW 292 15,9 C 21,5 km/h (4 Bft)
19.07.2015 14:00 28,4 C 31,5 C 48 % 1011,8 hPa 0,0 mm 10,1 km/h (2 Bft) NW 315 16,3 C 11,9 km/h (2 Bft)
19.07.2015 14:05 28,7 C 32,0 C 48 % 1011,8 hPa 0,0 mm 9,6 km/h (2 Bft) W-NW 292 16,6 C 7,8 km/h (2 Bft)
19.07.2015 14:10 28,8 C 32,3 C 47 % 1010,9 hPa 0,0 mm 9,6 km/h (2 Bft) N-NO 22 16,3 C 5,4 km/h (1 Bft)
19.07.2015 14:15 29,0 C 32,6 C 47 % 1010,9 hPa 0,0 mm 9,3 km/h (2 Bft) N-NO 22 16,5 C 13,2 km/h (3 Bft)
19.07.2015 14:20 28,9 C 32,6 C 47 % 1010,9 hPa 0,0 mm 9,3 km/h (2 Bft) N 360 16,4 C 4,4 km/h (1 Bft)
19.07.2015 14:25 29,0 C 32,8 C 47 % 1010,9 hPa 0,0 mm 9,8 km/h (2 Bft) W-SW 247 16,5 C 13,2 km/h (3 Bft)
19.07.2015 14:30 28,6 C 32,6 C 47 % 1010,7 hPa 0,0 mm 9,6 km/h (2 Bft) W-SW 247 16,2 C 15,0 km/h (3 Bft)
19.07.2015 14:35 28,6 C 32,7 C 47 % 1010,7 hPa 0,0 mm 9,8 km/h (2 Bft) NW 315 16,2 C 10,4 km/h (2 Bft)
19.07.2015 14:40 29,2 C 33,5 C 47 % 1010,7 hPa 0,0 mm 7,0 km/h (2 Bft) W 270 16,7 C 5,4 km/h (1 Bft)
19.07.2015 14:45 29,3 C 34,3 C 46 % 1010,7 hPa 0,0 mm 6,0 km/h (2 Bft) NW 315 16,5 C 12,7 km/h (3 Bft)
19.07.2015 14:50 29,6 C 34,6 C 47 % 1010,2 hPa 0,0 mm 8,3 km/h (2 Bft) NW 315 17,1 C 12,9 km/h (3 Bft)
19.07.2015 14:55 29,6 C 34,2 C 46 % 1010,2 hPa 0,0 mm 12,7 km/h (3 Bft) N 360 16,7 C 19,2 km/h (3 Bft)
19.07.2015 15:00 29,6 C 33,7 C 46 % 1010,2 hPa 0,0 mm 13,2 km/h (3 Bft) N-NW 337 16,7 C 23,0 km/h (4 Bft)
19.07.2015 15:05 29,4 C 33,5 C 46 % 1010,2 hPa 0,0 mm 12,9 km/h (3 Bft) W-NW 292 16,5 C 21,5 km/h (4 Bft)
19.07.2015 15:10 29,2 C 32,9 C 47 % 1009,9 hPa 0,0 mm 11,7 km/h (2 Bft) NW 315 16,7 C 17,1 km/h (3 Bft)
19.07.2015 15:15 29,1 C 32,6 C 47 % 1009,9 hPa 0,0 mm 12,2 km/h (2 Bft) W 270 16,6 C 16,3 km/h (3 Bft)
19.07.2015 15:20 28,8 C 32,3 C 48 % 1009,9 hPa 0,0 mm 12,9 km/h (3 Bft) NW 315 16,7 C 23,3 km/h (4 Bft)
19.07.2015 15:25 28,9 C 32,2 C 48 % 1009,9 hPa 0,0 mm 12,4 km/h (3 Bft) NW 315 16,8 C 12,2 km/h (2 Bft)
19.07.2015 15:30 28,8 C 32,1 C 48 % 1009,9 hPa 0,0 mm 11,9 km/h (2 Bft) W 270 16,7 C 28,7 km/h (4 Bft)
19.07.2015 15:35 28,7 C 32,2 C 48 % 1009,9 hPa 0,0 mm 11,7 km/h (2 Bft) W-NW 292 16,6 C 16,8 km/h (3 Bft)
19.07.2015 15:40 28,5 C 31,7 C 48 % 1009,9 hPa 0,0 mm 12,9 km/h (3 Bft) W-NW 292 16,4 C 16,8 km/h (3 Bft)
19.07.2015 15:45 28,2 C 31,3 C 48 % 1009,9 hPa 0,0 mm 13,5 km/h (3 Bft) NW 315 16,1 C 12,7 km/h (3 Bft)
19.07.2015 15:50 28,5 C 31,7 C 49 % 1009,8 hPa 0,0 mm 11,1 km/h (2 Bft) W-SW 247 16,7 C 3,9 km/h (1 Bft)
19.07.2015 15:55 28,4 C 32,1 C 49 % 1009,8 hPa 0,0 mm 8,0 km/h (2 Bft) W 270 16,6 C 17,9 km/h (3 Bft)
19.07.2015 16:00 28,3 C 32,0 C 49 % 1009,8 hPa 0,0 mm 8,5 km/h (2 Bft) W-SW 247 16,5 C 23,6 km/h (4 Bft)
19.07.2015 16:05 28,2 C 32,0 C 49 % 1009,8 hPa 0,0 mm 9,8 km/h (2 Bft) W 270 16,5 C 9,3 km/h (2 Bft)
19.07.2015 16:10 27,9 C 32,3 C 49 % 1009,7 hPa 0,0 mm 8,8 km/h (2 Bft) W-NW 292 16,2 C 12,9 km/h (3 Bft)
19.07.2015 16:15 27,8 C 32,2 C 50 % 1009,7 hPa 0,0 mm 9,6 km/h (2 Bft) W 270 16,4 C 13,2 km/h (3 Bft)
19.07.2015 16:20 27,2 C 30,0 C 50 % 1009,7 hPa 0,0 mm 11,7 km/h (2 Bft) N-NO 22 15,9 C 11,7 km/h (2 Bft)
19.07.2015 16:25 27,0 C 29,3 C 50 % 1009,7 hPa 0,0 mm 11,1 km/h (2 Bft) N-NW 337 15,7 C 14,5 km/h (3 Bft)
19.07.2015 16:30 26,9 C 29,1 C 50 % 1009,6 hPa 0,0 mm 9,3 km/h (2 Bft) W-NW 292 15,6 C 16,6 km/h (3 Bft)
19.07.2015 16:35 27,0 C 29,3 C 50 % 1009,6 hPa 0,0 mm 9,3 km/h (2 Bft) N-NW 337 15,7 C 10,9 km/h (2 Bft)
19.07.2015 16:40 27,1 C 30,5 C 50 % 1009,6 hPa 0,0 mm 10,1 km/h (2 Bft) W-SW 247 15,8 C 10,6 km/h (2 Bft)
19.07.2015 16:45 26,8 C 29,7 C 50 % 1009,6 hPa 0,0 mm 9,6 km/h (2 Bft) NW 315 15,5 C 0,0 km/h (0 Bft)
19.07.2015 16:50 26,6 C 28,6 C 50 % 1009,4 hPa 0,0 mm 8,3 km/h (2 Bft) W 270 15,3 C 10,4 km/h (2 Bft)
19.07.2015 16:55 26,4 C 28,0 C 50 % 1009,4 hPa 0,0 mm 6,2 km/h (2 Bft) W 270 15,1 C 6,5 km/h (2 Bft)
19.07.2015 17:00 26,1 C 27,6 C 51 % 1009,4 hPa 0,0 mm 3,9 km/h (1 Bft) W 270 15,2 C 3,9 km/h (1 Bft)
19.07.2015 17:05 25,9 C 27,4 C 54 % 1009,4 hPa 0,0 mm 2,6 km/h (1 Bft) W-NW 292 15,9 C 6,0 km/h (2 Bft)
19.07.2015 17:10 26,0 C 27,3 C 51 % 1009,2 hPa 0,0 mm 4,9 km/h (1 Bft) N-NW 337 15,1 C 7,0 km/h (2 Bft)
19.07.2015 17:15 26,1 C 27,5 C 51 % 1009,2 hPa 0,0 mm 6,5 km/h (2 Bft) NW 315 15,2 C 7,3 km/h (2 Bft)
19.07.2015 17:20 26,5 C 28,0 C 52 % 1009,2 hPa 0,0 mm 7,3 km/h (2 Bft) W-SW 247 15,8 C 10,4 km/h (2 Bft)
19.07.2015 17:25 26,7 C 28,3 C 51 % 1009,2 hPa 0,0 mm 9,1 km/h (2 Bft) W 270 15,7 C 7,3 km/h (2 Bft)
19.07.2015 17:30 26,7 C 28,5 C 50 % 1009,3 hPa 0,0 mm 8,5 km/h (2 Bft) W-NW 292 15,4 C 12,7 km/h (3 Bft)
19.07.2015 17:35 26,8 C 28,4 C 50 % 1009,3 hPa 0,0 mm 8,8 km/h (2 Bft) NW 315 15,5 C 14,8 km/h (3 Bft)
19.07.2015 17:40 26,9 C 28,6 C 50 % 1009,3 hPa 0,0 mm 10,4 km/h (2 Bft) NW 315 15,6 C 12,2 km/h (2 Bft)
19.07.2015 17:45 27,0 C 28,8 C 50 % 1009,3 hPa 0,0 mm 9,3 km/h (2 Bft) S-SW 202 15,7 C 9,3 km/h (2 Bft)
19.07.2015 17:50 27,0 C 28,9 C 50 % 1009,2 hPa 0,0 mm 8,3 km/h (2 Bft) W 270 15,7 C 12,9 km/h (3 Bft)
19.07.2015 17:55 26,8 C 28,6 C 50 % 1009,2 hPa 0,0 mm 8,5 km/h (2 Bft) W 270 15,5 C 10,9 km/h (2 Bft)
19.07.2015 18:00 26,5 C 27,9 C 50 % 1009,2 hPa 0,0 mm 8,3 km/h (2 Bft) NW 315 15,2 C 14,2 km/h (3 Bft)
19.07.2015 18:05 26,2 C 27,5 C 50 % 1009,2 hPa 0,0 mm 8,0 km/h (2 Bft) W 270 14,9 C 15,3 km/h (3 Bft)
19.07.2015 18:10 26,2 C 27,4 C 51 % 1009,2 hPa 0,0 mm 6,2 km/h (2 Bft) W 270 15,2 C 3,4 km/h (1 Bft)
19.07.2015 18:15 26,3 C 27,6 C 51 % 1009,2 hPa 0,0 mm 5,7 km/h (1 Bft) N-NO 22 15,3 C 8,3 km/h (2 Bft)
19.07.2015 18:20 26,2 C 27,4 C 51 % 1009,2 hPa 0,0 mm 5,7 km/h (1 Bft) W 270 15,2 C 14,0 km/h (3 Bft)
19.07.2015 18:25 25,8 C 26,9 C 53 % 1009,2 hPa 0,0 mm 6,2 km/h (2 Bft) W 270 15,5 C 7,8 km/h (2 Bft)
19.07.2015 18:30 25,4 C 26,1 C 53 % 1009,2 hPa 0,0 mm 7,0 km/h (2 Bft) W-SW 247 15,1 C 7,5 km/h (2 Bft)
19.07.2015 18:35 25,1 C 25,6 C 54 % 1009,2 hPa 0,0 mm 6,5 km/h (2 Bft) W 270 15,1 C 6,5 km/h (2 Bft)
19.07.2015 18:40 24,8 C 25,1 C 54 % 1009,2 hPa 0,0 mm 8,0 km/h (2 Bft) W 270 14,8 C 17,6 km/h (3 Bft)
19.07.2015 18:45 24,6 C 24,8 C 54 % 1009,2 hPa 0,0 mm 9,8 km/h (2 Bft) S-SW 202 14,7 C 9,6 km/h (2 Bft)
19.07.2015 18:50 24,3 C 24,2 C 54 % 1009,4 hPa 0,0 mm 9,3 km/h (2 Bft) SW 225 14,4 C 5,4 km/h (1 Bft)
19.07.2015 18:55 23,8 C 23,6 C 55 % 1009,4 hPa 0,0 mm 6,7 km/h (2 Bft) SW 225 14,2 C 0,0 km/h (0 Bft)
19.07.2015 19:00 23,1 C 22,7 C 57 % 1009,4 hPa 0,0 mm 4,7 km/h (1 Bft) S 180 14,1 C 7,3 km/h (2 Bft)
19.07.2015 19:05 22,8 C 22,4 C 59 % 1009,4 hPa 0,0 mm 7,8 km/h (2 Bft) SW 225 14,4 C 18,9 km/h (3 Bft)
19.07.2015 19:10 22,2 C 21,9 C 63 % 1010,1 hPa 0,0 mm 7,3 km/h (2 Bft) W 270 14,8 C 0,0 km/h (0 Bft)
19.07.2015 19:15 22,1 C 21,9 C 66 % 1010,1 hPa 0,0 mm 5,2 km/h (1 Bft) S-SO 157 15,4 C 5,7 km/h (1 Bft)
19.07.2015 19:20 21,9 C 21,8 C 69 % 1010,1 hPa 0,0 mm 3,4 km/h (1 Bft) S-SO 157 15,9 C 2,6 km/h (1 Bft)
19.07.2015 19:25 21,8 C 22,0 C 68 % 1010,1 hPa 0,0 mm 2,6 km/h (1 Bft) W-NW 292 15,6 C 2,8 km/h (1 Bft)
19.07.2015 19:30 21,5 C 22,3 C 68 % 1009,9 hPa 0,0 mm 3,4 km/h (1 Bft) SW 225 15,3 C 15,3 km/h (3 Bft)
19.07.2015 19:35 21,3 C 22,2 C 68 % 1009,9 hPa 0,0 mm 6,0 km/h (2 Bft) S 180 15,1 C 9,8 km/h (2 Bft)
19.07.2015 19:40 21,0 C 22,1 C 68 % 1009,9 hPa 0,0 mm 4,9 km/h (1 Bft) SO 135 14,9 C 0,0 km/h (0 Bft)
19.07.2015 19:45 20,9 C 21,9 C 69 % 1009,9 hPa 0,0 mm 2,6 km/h (1 Bft) S 180 15,0 C 0,0 km/h (0 Bft)
19.07.2015 19:50 20,7 C 21,6 C 70 % 1010,0 hPa 0,0 mm 2,3 km/h (1 Bft) N-NW 337 15,0 C 5,4 km/h (1 Bft)
19.07.2015 19:55 20,7 C 21,4 C 70 % 1010,0 hPa 0,0 mm 1,8 km/h (1 Bft) N 360 15,0 C 7,5 km/h (2 Bft)
19.07.2015 20:00 20,5 C 21,0 C 73 % 1010,0 hPa 0,0 mm 1,0 km/h (0 Bft) NW 315 15,5 C 0,0 km/h (0 Bft)
19.07.2015 20:05 20,3 C 20,7 C 73 % 1010,0 hPa 0,0 mm 1,0 km/h (0 Bft) S 180 15,3 C 3,6 km/h (1 Bft)
19.07.2015 20:10 20,1 C 20,3 C 74 % 1009,7 hPa 0,0 mm 0,8 km/h (0 Bft) W-NW 292 15,3 C 3,9 km/h (1 Bft)
19.07.2015 20:15 20,0 C 20,1 C 72 % 1009,7 hPa 0,0 mm 0,8 km/h (0 Bft) NW 315 14,8 C 0,0 km/h (0 Bft)
19.07.2015 20:20 19,9 C 19,9 C 74 % 1009,7 hPa 0,0 mm 0,3 km/h (0 Bft) S 180 15,1 C 0,0 km/h (0 Bft)
19.07.2015 20:25 19,7 C 19,6 C 75 % 1009,6 hPa 0,0 mm 0,5 km/h (0 Bft) O-NO 67 15,1 C 0,0 km/h (0 Bft)
19.07.2015 20:26 19,7 C 19,6 C 75 % 1009,6 hPa 0,0 mm 0,5 km/h (0 Bft) O-NO 67 15,1 C 0,0 km/h (0 Bft)
19.07.2015 20:30 19,7 C 19,6 C 75 % 1009,6 hPa 0,0 mm 0,5 km/h (0 Bft) O-NO 67 15,1 C 0,0 km/h (0 Bft)
19.07.2015 20:35 19,6 C 19,6 C 74 % 1009,6 hPa 0,0 mm 0,5 km/h (0 Bft) SO 135 14,8 C 0,0 km/h (0 Bft)
19.07.2015 20:40 19,6 C 19,6 C 74 % 1009,6 hPa 0,0 mm 0,3 km/h (0 Bft) SO 135 14,8 C 3,6 km/h (1 Bft)
19.07.2015 20:45 19,7 C 19,7 C 75 % 1009,6 hPa 0,0 mm 1,3 km/h (1 Bft) S 180 15,1 C 0,0 km/h (0 Bft)
19.07.2015 20:50 19,7 C 19,6 C 76 % 1009,8 hPa 0,0 mm 1,3 km/h (1 Bft) S-SW 202 15,3 C 0,0 km/h (0 Bft)
19.07.2015 20:55 19,7 C 19,6 C 77 % 1009,8 hPa 0,0 mm 0,3 km/h (0 Bft) O-NO 67 15,5 C 0,0 km/h (0 Bft)
19.07.2015 21:00 19,7 C 19,6 C 78 % 1009,8 hPa 0,0 mm 0,3 km/h (0 Bft) O-NO 67 15,8 C 0,0 km/h (0 Bft)
19.07.2015 21:05 19,6 C 19,5 C 78 % 1009,8 hPa 0,0 mm 0,3 km/h (0 Bft) O-SO 112 15,7 C 0,0 km/h (0 Bft)
19.07.2015 21:10 19,6 C 19,6 C 76 % 1009,9 hPa 0,0 mm 0,3 km/h (0 Bft) S 180 15,2 C 0,0 km/h (0 Bft)
19.07.2015 21:15 19,6 C 19,5 C 77 % 1009,9 hPa 0,0 mm 0,0 km/h (0 Bft) O-SO 112 15,5 C 0,0 km/h (0 Bft)
19.07.2015 21:20 19,7 C 19,6 C 77 % 1009,9 hPa 0,0 mm 0,8 km/h (0 Bft) W-SW 247 15,5 C 6,5 km/h (2 Bft)
19.07.2015 21:25 19,5 C 19,2 C 77 % 1009,9 hPa 0,0 mm 1,6 km/h (1 Bft) W 270 15,4 C 0,0 km/h (0 Bft)
19.07.2015 21:30 19,3 C 18,9 C 78 % 1010,1 hPa 0,0 mm 1,3 km/h (1 Bft) W-SW 247 15,4 C 0,0 km/h (0 Bft)
19.07.2015 21:35 19,0 C 18,7 C 80 % 1010,1 hPa 0,0 mm 0,3 km/h (0 Bft) NW 315 15,5 C 0,0 km/h (0 Bft)
19.07.2015 21:40 19,0 C 18,6 C 79 % 1010,1 hPa 0,0 mm 0,3 km/h (0 Bft) W 270 15,3 C 0,0 km/h (0 Bft)
19.07.2015 21:45 18,9 C 18,6 C 80 % 1010,1 hPa 0,0 mm 0,3 km/h (0 Bft) SW 225 15,4 C 0,0 km/h (0 Bft)
19.07.2015 21:50 18,8 C 18,5 C 82 % 1010,6 hPa 0,0 mm 0,0 km/h (0 Bft) W 270 15,7 C 2,8 km/h (1 Bft)
19.07.2015 21:55 18,9 C 18,5 C 82 % 1010,6 hPa 0,0 mm 1,3 km/h (1 Bft) W 270 15,8 C 0,0 km/h (0 Bft)
19.07.2015 22:00 18,9 C 18,5 C 82 % 1010,6 hPa 0,0 mm 2,6 km/h (1 Bft) S 180 15,8 C 9,8 km/h (2 Bft)
19.07.2015 22:05 19,0 C 18,7 C 79 % 1010,6 hPa 0,0 mm 2,6 km/h (1 Bft) SO 135 15,3 C 4,1 km/h (1 Bft)
19.07.2015 22:10 19,2 C 18,7 C 81 % 1010,9 hPa 0,0 mm 2,8 km/h (1 Bft) W 270 15,9 C 3,6 km/h (1 Bft)
19.07.2015 22:15 19,2 C 18,7 C 81 % 1010,9 hPa 0,0 mm 2,3 km/h (1 Bft) N-NO 22 15,9 C 5,2 km/h (1 Bft)
19.07.2015 22:20 19,2 C 18,7 C 81 % 1010,9 hPa 0,7 mm 2,6 km/h (1 Bft) SO 135 15,9 C 3,6 km/h (1 Bft)
19.07.2015 22:25 19,2 C 18,7 C 81 % 1010,9 hPa 0,0 mm 3,4 km/h (1 Bft) SW 225 15,9 C 5,7 km/h (1 Bft)
19.07.2015 22:30 19,0 C 18,6 C 81 % 1010,9 hPa 0,0 mm 2,3 km/h (1 Bft) S-SW 202 15,7 C 3,9 km/h (1 Bft)
19.07.2015 22:35 18,9 C 18,5 C 82 % 1010,9 hPa 0,0 mm 2,8 km/h (1 Bft) S 180 15,8 C 4,4 km/h (1 Bft)
19.07.2015 22:40 18,7 C 18,4 C 82 % 1010,9 hPa 0,0 mm 2,3 km/h (1 Bft) S 180 15,6 C 4,1 km/h (1 Bft)
19.07.2015 22:45 18,5 C 18,2 C 83 % 1010,9 hPa 0,0 mm 1,3 km/h (1 Bft) O-NO 67 15,6 C 0,0 km/h (0 Bft)
19.07.2015 22:50 18,4 C 18,1 C 83 % 1011,1 hPa 0,0 mm 0,0 km/h (0 Bft) W-SW 247 15,5 C 0,0 km/h (0 Bft)
19.07.2015 22:55 18,4 C 18,1 C 83 % 1011,1 hPa 0,0 mm 0,0 km/h (0 Bft) W 270 15,5 C 0,0 km/h (0 Bft)
19.07.2015 23:00 18,3 C 18,0 C 84 % 1011,1 hPa 0,0 mm 1,0 km/h (0 Bft) O-NO 67 15,5 C 0,0 km/h (0 Bft)
19.07.2015 23:05 18,2 C 18,0 C 85 % 1011,1 hPa 0,0 mm 1,0 km/h (0 Bft) NO 45 15,6 C 0,0 km/h (0 Bft)
19.07.2015 23:10 18,1 C 17,9 C 85 % 1010,8 hPa 0,0 mm 0,0 km/h (0 Bft) O-SO 112 15,5 C 0,0 km/h (0 Bft)
19.07.2015 23:15 18,1 C 17,9 C 85 % 1010,8 hPa 0,0 mm 0,0 km/h (0 Bft) NW 315 15,5 C 0,0 km/h (0 Bft)
19.07.2015 23:20 18,1 C 17,9 C 85 % 1010,8 hPa 0,0 mm 0,0 km/h (0 Bft) SO 135 15,5 C 0,0 km/h (0 Bft)
19.07.2015 23:25 18,1 C 17,9 C 85 % 1010,8 hPa 0,0 mm 0,0 km/h (0 Bft) S-SO 157 15,5 C 0,0 km/h (0 Bft)
19.07.2015 23:30 18,1 C 17,9 C 85 % 1010,9 hPa 0,0 mm 0,0 km/h (0 Bft) S-SO 157 15,5 C 0,0 km/h (0 Bft)
19.07.2015 23:35 18,0 C 17,9 C 82 % 1010,9 hPa 0,0 mm 0,3 km/h (0 Bft) S-SO 157 14,9 C 0,0 km/h (0 Bft)
19.07.2015 23:40 18,0 C 17,7 C 85 % 1010,9 hPa 0,0 mm 0,3 km/h (0 Bft) SW 225 15,4 C 0,0 km/h (0 Bft)
19.07.2015 23:45 17,9 C 17,7 C 85 % 1010,9 hPa 0,0 mm 0,0 km/h (0 Bft) SW 225 15,3 C 0,0 km/h (0 Bft)
19.07.2015 23:50 18,0 C 17,7 C 86 % 1011,0 hPa 0,0 mm 0,8 km/h (0 Bft) SO 135 15,6 C 3,6 km/h (1 Bft)
19.07.2015 23:55 18,0 C 17,7 C 86 % 1011,0 hPa 0,0 mm 0,8 km/h (0 Bft) O-SO 112 15,6 C 0,0 km/h (0 Bft)
_ Min-Zeit 06:15 06:15 15:05 08:05 - 23:45 - - 06:05 23:55
Minimum _ 15,0 C 14,9 C 46 % 1008,6 hPa - 0,0 km/h (0 Bft) - - 12,3 C 0,0 km/h (0 Bft)
_ Max-Zeit 15:00 14:50 23:55 12:05 22:20 12:45 - - 09:15 10:30
Maximum _ 29,6 C 34,6 C 86 % 1012,8 hPa 0,7 mm 15,3 km/h
W-SW (3 Bft)
- - 18,0 C 41,4 km/h
NW (6 Bft)
Durchschnitt _ 21,8 C 23,7 C 68 % 1010,6 hPa #0,7 mm 4,6 km/h (1 Bft) W - 15,1 C 6,6 km/h (2 Bft)